createdAt,value
2023-04-18T00:01:09.678Z,84.81
2023-04-18T00:03:15.901Z,85.27
2023-04-18T00:05:18.208Z,85.81
2023-04-18T00:07:19.995Z,84.35
2023-04-18T00:09:21.764Z,83.72
2023-04-18T00:11:23.395Z,82.70
2023-04-18T00:13:25.087Z,83.90
2023-04-18T00:15:26.696Z,84.96
2023-04-18T00:17:28.381Z,84.92
2023-04-18T00:19:30.112Z,86.21
2023-04-18T00:21:31.971Z,86.05
2023-04-18T00:23:34.319Z,86.54
2023-04-18T00:25:35.922Z,86.52
2023-04-18T00:27:38.947Z,86.70
2023-04-18T00:29:40.834Z,85.98
2023-04-18T00:31:43.226Z,86.37
2023-04-18T00:33:44.993Z,87.06
2023-04-18T00:35:46.513Z,87.32
2023-04-18T00:37:49.617Z,86.37
2023-04-18T00:39:53.835Z,87.42
2023-04-18T00:41:55.603Z,86.52
2023-04-18T00:43:57.240Z,86.96
2023-04-18T00:46:01.419Z,86.42
2023-04-18T00:48:03.466Z,85.29
2023-04-18T00:50:05.976Z,85.16
2023-04-18T00:52:07.614Z,85.38
2023-04-18T00:54:11.252Z,84.71
2023-04-18T00:56:13.011Z,84.95
2023-04-18T00:58:14.612Z,84.61
2023-04-18T01:00:16.501Z,84.22
2023-04-18T01:02:19.166Z,83.61
2023-04-18T01:04:20.976Z,82.79
2023-04-18T01:06:23.557Z,83.13
2023-04-18T01:08:25.464Z,82.86
2023-04-18T01:10:28.610Z,84.19
2023-04-18T01:12:30.685Z,83.99
2023-04-18T01:14:32.508Z,82.81
2023-04-18T01:16:34.152Z,82.56
2023-04-18T01:18:36.976Z,82.04
2023-04-18T01:20:46.601Z,81.68
2023-04-18T01:22:48.102Z,81.53
2023-04-18T01:24:49.652Z,82.15
2023-04-18T01:26:52.436Z,81.67
2023-04-18T01:28:54.316Z,81.92
2023-04-18T01:30:55.900Z,82.41
2023-04-18T01:32:57.568Z,82.25
2023-04-18T01:35:01.999Z,81.90
2023-04-18T01:37:03.654Z,82.19
2023-04-18T01:39:05.397Z,81.66
2023-04-18T01:41:07.143Z,81.63
2023-04-18T01:43:08.842Z,82.10
2023-04-18T01:45:13.171Z,81.55
2023-04-18T01:47:15.623Z,82.02
2023-04-18T01:49:17.224Z,82.65
2023-04-18T01:51:18.734Z,83.01
2023-04-18T01:53:20.407Z,81.98
2023-04-18T01:55:22.169Z,81.77
2023-04-18T01:57:23.812Z,81.33
2023-04-18T01:59:25.500Z,82.40
2023-04-18T02:01:27.403Z,82.35
2023-04-18T02:03:29.046Z,81.61
2023-04-18T02:05:30.717Z,80.67
2023-04-18T02:07:34.328Z,80.33
2023-04-18T02:09:35.818Z,80.41
2023-04-18T02:11:38.294Z,80.49
2023-04-18T02:13:39.865Z,80.87
2023-04-18T02:15:44.368Z,82.94
2023-04-18T02:17:50.492Z,82.76
2023-04-18T02:19:52.320Z,85.70
2023-04-18T02:21:54.420Z,85.50
2023-04-18T02:23:59.040Z,87.12
2023-04-18T02:26:00.875Z,86.40
2023-04-18T02:28:02.499Z,85.20
2023-04-18T02:30:07.093Z,85.05
2023-04-18T02:32:09.161Z,84.51
2023-04-18T02:34:10.890Z,84.93
2023-04-18T02:36:13.116Z,85.34
2023-04-18T02:38:15.997Z,84.91
2023-04-18T02:40:17.893Z,86.95
2023-04-18T02:42:19.390Z,85.66
2023-04-18T02:44:20.879Z,85.51
2023-04-18T02:46:22.760Z,85.12
2023-04-18T02:48:24.543Z,84.77
2023-04-18T02:50:26.964Z,85.15
2023-04-18T02:52:30.520Z,86.21
2023-04-18T02:54:32.156Z,86.68
2023-04-18T02:56:40.054Z,86.02
2023-04-18T02:58:50.861Z,86.04
2023-04-18T03:01:13.012Z,86.04
2023-04-18T03:03:25.847Z,86.29
2023-04-18T03:05:35.995Z,86.50
2023-04-18T03:07:39.613Z,86.05
2023-04-18T03:09:41.187Z,85.92
2023-04-18T03:11:52.267Z,85.18
2023-04-18T03:13:58.849Z,85.41
2023-04-18T03:16:05.793Z,86.04
2023-04-18T03:18:08.591Z,84.92
2023-04-18T03:20:12.669Z,85.42
2023-04-18T03:22:16.201Z,85.30
2023-04-18T03:24:25.250Z,85.35
2023-04-18T03:26:29.321Z,84.64
2023-04-18T03:28:31.960Z,85.45
2023-04-18T03:30:33.705Z,85.80
2023-04-18T03:32:36.653Z,85.78
2023-04-18T03:34:38.777Z,85.45
2023-04-18T03:36:42.970Z,85.74
2023-04-18T03:38:46.133Z,85.00
2023-04-18T03:40:47.756Z,84.96
2023-04-18T03:42:56.387Z,84.67
2023-04-18T03:44:57.945Z,84.38
2023-04-18T03:47:00.438Z,84.30
2023-04-18T03:49:03.725Z,84.35
2023-04-18T03:51:05.970Z,84.17
2023-04-18T03:53:07.847Z,84.22
2023-04-18T03:55:11.911Z,84.45
2023-04-18T03:57:13.459Z,84.48
2023-04-18T03:59:16.186Z,84.72
2023-04-18T04:01:21.744Z,84.85
2023-04-18T04:03:30.337Z,85.22
2023-04-18T04:05:32.879Z,84.80
2023-04-18T04:07:34.808Z,85.62
2023-04-18T04:09:36.523Z,85.38
2023-04-18T04:11:38.384Z,85.29
2023-04-18T04:13:42.141Z,85.89
2023-04-18T04:15:44.183Z,85.20
2023-04-18T04:17:46.042Z,85.14
2023-04-18T04:19:49.726Z,84.45
2023-04-18T04:21:54.146Z,83.87
2023-04-18T04:23:57.230Z,84.85
2023-04-18T04:26:10.153Z,84.82
2023-04-18T04:28:23.766Z,85.03
2023-04-18T04:30:31.639Z,84.93
2023-04-18T04:32:33.565Z,84.62
2023-04-18T04:34:35.892Z,84.63
2023-04-18T04:36:41.083Z,84.59
2023-04-18T04:38:44.315Z,84.68
2023-04-18T04:40:46.385Z,84.71
2023-04-18T04:42:49.174Z,84.65
2023-04-18T04:44:57.342Z,84.11
2023-04-18T04:46:59.328Z,84.19
2023-04-18T04:49:06.582Z,84.31
2023-04-18T04:51:08.237Z,84.16
2023-04-18T04:53:19.212Z,83.94
2023-04-18T04:55:21.391Z,83.80
2023-04-18T04:57:23.040Z,82.65
2023-04-18T04:59:24.851Z,83.06
2023-04-18T05:01:26.632Z,83.71
2023-04-18T05:03:28.745Z,84.11
2023-04-18T05:05:31.927Z,84.01
2023-04-18T05:07:33.429Z,84.19
2023-04-18T05:09:35.028Z,83.63
2023-04-18T05:11:36.542Z,83.92
2023-04-18T05:13:38.078Z,84.25
2023-04-18T05:15:39.734Z,84.37
2023-04-18T05:17:41.595Z,83.79
2023-04-18T05:19:44.255Z,84.40
2023-04-18T05:21:45.834Z,83.86
2023-04-18T05:23:47.349Z,83.83
2023-04-18T05:25:48.883Z,84.62
2023-04-18T05:27:50.527Z,83.56
2023-04-18T05:29:53.558Z,82.59
2023-04-18T05:31:55.354Z,83.57
2023-04-18T05:33:57.004Z,83.91
2023-04-18T05:35:59.396Z,83.93
2023-04-18T05:38:00.956Z,84.42
2023-04-18T05:40:03.779Z,84.21
2023-04-18T05:42:05.282Z,84.06
2023-04-18T05:44:06.896Z,84.28
2023-04-18T05:46:09.073Z,84.10
2023-04-18T05:48:10.916Z,84.88
2023-04-18T05:50:18.079Z,84.31
2023-04-18T05:52:19.624Z,83.99
2023-04-18T05:54:21.450Z,83.96
2023-04-18T05:56:23.030Z,83.04
2023-04-18T05:58:24.598Z,83.60
2023-04-18T06:00:26.293Z,84.74
2023-04-18T06:02:28.052Z,84.68
2023-04-18T06:04:30.360Z,84.92
2023-04-18T06:06:32.967Z,84.81
2023-04-18T06:08:34.428Z,84.69
2023-04-18T06:10:37.721Z,83.97
2023-04-18T06:12:40.827Z,83.65
2023-04-18T06:14:42.518Z,84.77
2023-04-18T06:16:44.275Z,84.75
2023-04-18T06:18:45.931Z,84.51
2023-04-18T06:20:47.497Z,83.87
2023-04-18T06:22:49.073Z,83.17
2023-04-18T06:24:50.931Z,83.00
2023-04-18T06:26:54.007Z,82.13
2023-04-18T06:28:55.909Z,81.89
2023-04-18T06:30:57.556Z,82.19
2023-04-18T06:32:59.447Z,82.75
2023-04-18T06:35:01.077Z,83.15
2023-04-18T06:37:02.699Z,82.89
2023-04-18T06:39:04.469Z,82.85
2023-04-18T06:41:06.111Z,83.20
2023-04-18T06:43:07.904Z,81.62
2023-04-18T06:45:12.860Z,81.61
2023-04-18T06:47:14.531Z,82.08
2023-04-18T06:49:16.193Z,81.50
2023-04-18T06:51:17.792Z,82.24
2023-04-18T06:53:19.661Z,80.28
2023-04-18T06:55:21.511Z,79.84
2023-04-18T06:57:23.102Z,80.01
2023-04-18T06:59:24.690Z,79.96
2023-04-18T07:01:26.374Z,79.97
2023-04-18T07:03:28.151Z,80.18
2023-04-18T07:05:29.774Z,80.31
2023-04-18T07:07:32.339Z,80.20
2023-04-18T07:09:33.847Z,79.20
2023-04-18T07:11:35.432Z,78.27
2023-04-18T07:13:37.161Z,78.81
2023-04-18T07:15:38.771Z,75.90
2023-04-18T07:17:40.522Z,76.34
2023-04-18T07:19:42.346Z,75.19
2023-04-18T07:21:45.804Z,73.41
2023-04-18T07:23:47.310Z,73.41
2023-04-18T07:25:49.495Z,73.06
2023-04-18T07:27:51.051Z,72.79
2023-04-18T07:29:52.764Z,73.52
2023-04-18T07:31:54.548Z,73.36
2023-04-18T07:33:56.122Z,72.91
2023-04-18T07:35:57.977Z,73.52
2023-04-18T07:37:59.484Z,71.62
2023-04-18T07:40:00.967Z,72.63
2023-04-18T07:42:05.844Z,73.05
2023-04-18T07:44:07.497Z,72.67
2023-04-18T07:46:09.081Z,70.94
2023-04-18T07:48:11.280Z,70.90
2023-04-18T07:50:13.032Z,71.27
2023-04-18T07:52:14.795Z,70.68
2023-04-18T07:54:16.507Z,70.35
2023-04-18T07:56:18.550Z,68.00
2023-04-18T07:58:20.483Z,69.89
2023-04-18T08:00:22.051Z,69.14
2023-04-18T08:02:23.729Z,68.79
2023-04-18T08:04:27.013Z,70.56
2023-04-18T08:06:30.926Z,70.87
2023-04-18T08:08:33.506Z,70.16
2023-04-18T08:10:35.575Z,69.10
2023-04-18T08:12:37.648Z,68.28
2023-04-18T08:14:39.202Z,68.80
2023-04-18T08:16:40.857Z,68.61
2023-04-18T08:18:42.486Z,68.30
2023-04-18T08:20:44.099Z,67.87
2023-04-18T08:23:02.362Z,68.31
2023-04-18T08:25:07.526Z,68.21
2023-04-18T08:27:09.043Z,68.97
2023-04-18T08:29:11.710Z,70.15
2023-04-18T08:31:14.922Z,68.46
2023-04-18T08:33:16.739Z,69.36
2023-04-18T08:35:18.558Z,68.73
2023-04-18T08:37:20.361Z,67.61
2023-04-18T08:39:25.450Z,67.91
2023-04-18T08:41:29.904Z,68.68
2023-04-18T08:43:31.528Z,68.54
2023-04-18T08:45:33.516Z,68.90
2023-04-18T08:47:37.713Z,68.60
2023-04-18T08:49:40.056Z,66.75
2023-04-18T08:51:43.115Z,63.41
2023-04-18T08:53:45.355Z,61.36
2023-04-18T08:55:50.365Z,63.84
2023-04-18T08:57:54.970Z,60.03
2023-04-18T09:00:00.594Z,60.65
2023-04-18T09:02:06.384Z,60.75
2023-04-18T09:04:07.987Z,60.88
2023-04-18T09:06:18.850Z,63.35
2023-04-18T09:08:26.653Z,60.91
2023-04-18T09:10:34.615Z,62.73
2023-04-18T09:12:52.518Z,63.64
2023-04-18T09:15:15.112Z,60.71
2023-04-18T09:17:43.797Z,61.71
2023-04-18T09:19:50.037Z,59.56
2023-04-18T09:21:59.858Z,59.40
2023-04-18T09:24:24.149Z,60.75
2023-04-18T09:26:36.221Z,60.32
2023-04-18T09:28:38.289Z,58.48
2023-04-18T09:30:41.089Z,60.31
2023-04-18T09:32:45.003Z,59.66
2023-04-18T09:34:47.100Z,58.91
2023-04-18T09:37:05.707Z,57.93
2023-04-18T09:39:07.552Z,59.39
2023-04-18T09:41:10.509Z,59.83
2023-04-18T09:43:19.601Z,58.13
2023-04-18T09:45:22.235Z,59.83
2023-04-18T09:47:23.870Z,57.74
2023-04-18T09:49:25.659Z,59.44
2023-04-18T09:51:27.282Z,55.55
2023-04-18T09:53:30.079Z,55.98
2023-04-18T09:55:32.179Z,55.33
2023-04-18T09:57:35.737Z,53.42
2023-04-18T09:59:48.037Z,54.14
2023-04-18T10:01:51.322Z,53.71
2023-04-18T10:03:56.277Z,52.91
2023-04-18T10:05:58.100Z,55.07
2023-04-18T10:08:00.096Z,53.94
2023-04-18T10:10:02.880Z,53.91
2023-04-18T10:12:04.487Z,55.24
2023-04-18T10:14:13.302Z,55.59
2023-04-18T10:16:16.926Z,57.59
2023-04-18T10:18:23.205Z,59.72
2023-04-18T10:20:26.735Z,58.00
2023-04-18T10:22:28.389Z,59.08
2023-04-18T10:24:45.295Z,58.00
2023-04-18T10:26:47.317Z,55.31
2023-04-18T10:28:53.510Z,55.88
2023-04-18T10:31:05.530Z,53.75
2023-04-18T10:35:28.713Z,54.96
2023-04-18T10:37:31.919Z,52.93
2023-04-18T10:39:57.510Z,52.52
2023-04-18T10:41:59.103Z,51.71
2023-04-18T10:44:08.412Z,51.90
2023-04-18T10:46:24.036Z,52.91
2023-04-18T10:48:38.452Z,50.97
2023-04-18T10:51:12.675Z,50.89
2023-04-18T10:53:14.370Z,53.73
2023-04-18T10:55:26.148Z,54.84
2023-04-18T10:57:48.687Z,51.99
2023-04-18T10:59:52.815Z,50.07
2023-04-18T11:01:57.198Z,49.92
2023-04-18T11:03:59.789Z,48.33
2023-04-18T11:06:02.879Z,50.01
2023-04-18T11:08:04.997Z,52.29
2023-04-18T11:10:08.624Z,53.05
2023-04-18T11:12:11.215Z,53.65
2023-04-18T11:14:13.005Z,50.36
2023-04-18T11:16:26.950Z,52.16
2023-04-18T11:18:40.906Z,51.53
2023-04-18T11:20:50.198Z,51.68
2023-04-18T11:22:54.648Z,53.96
2023-04-18T11:25:00.795Z,54.37
2023-04-18T11:27:04.323Z,55.10
2023-04-18T11:29:06.100Z,54.87
2023-04-18T11:31:08.367Z,54.45
2023-04-18T11:33:16.789Z,54.29
2023-04-18T11:35:18.824Z,55.04
2023-04-18T11:37:21.017Z,54.36
2023-04-18T11:39:23.092Z,54.20
2023-04-18T11:41:24.804Z,54.60
2023-04-18T11:43:26.493Z,56.39
2023-04-18T11:45:28.360Z,56.23
2023-04-18T11:47:33.871Z,57.22
2023-04-18T11:49:35.694Z,59.61
2023-04-18T11:51:43.503Z,58.40
2023-04-18T11:53:45.379Z,58.88
2023-04-18T11:55:55.984Z,58.72
2023-04-18T11:57:59.988Z,57.70
2023-04-18T12:00:01.981Z,58.94
2023-04-18T12:04:16.648Z,55.67
2023-04-18T12:06:18.533Z,55.59
2023-04-18T12:08:20.914Z,54.95
2023-04-18T12:10:22.436Z,53.87
2023-04-18T12:12:24.001Z,55.18
2023-04-18T12:16:02.118Z,51.77
2023-04-18T12:18:05.438Z,51.96
2023-04-18T12:20:09.770Z,52.21
2023-04-18T12:22:11.383Z,53.71
2023-04-18T12:24:17.184Z,54.90
2023-04-18T12:26:18.781Z,54.64
2023-04-18T12:28:21.154Z,54.06
2023-04-18T12:30:33.736Z,54.35
2023-04-18T12:32:36.248Z,53.44
2023-04-18T12:34:37.832Z,52.47
2023-04-18T12:36:39.346Z,52.86
2023-04-18T12:38:41.137Z,52.26
2023-04-18T12:40:42.662Z,51.06
2023-04-18T12:42:45.313Z,49.87
2023-04-18T12:44:48.404Z,51.67
2023-04-18T12:46:50.748Z,52.28
2023-04-18T12:48:52.504Z,51.29
2023-04-18T12:50:54.213Z,51.82
2023-04-18T12:52:58.891Z,52.19
2023-04-18T12:55:01.012Z,52.58
2023-04-18T12:57:03.202Z,50.88
2023-04-18T12:59:04.697Z,49.82
2023-04-18T13:01:06.552Z,50.09
2023-04-18T13:03:09.684Z,50.74
2023-04-18T13:05:14.278Z,49.44
2023-04-18T13:07:16.030Z,47.55
2023-04-18T13:09:17.657Z,45.85
2023-04-18T13:11:20.549Z,46.19
2023-04-18T13:13:22.176Z,45.06
2023-04-18T13:15:23.856Z,46.58
2023-04-18T13:17:26.020Z,45.90
2023-04-18T13:19:27.519Z,46.87
2023-04-18T13:21:29.169Z,48.72
2023-04-18T13:23:30.704Z,50.29
2023-04-18T13:25:32.321Z,49.82
2023-04-18T13:27:34.246Z,48.99
2023-04-18T13:29:38.072Z,49.96
2023-04-18T13:31:39.711Z,50.05
2023-04-18T13:33:41.568Z,50.42
2023-04-18T13:35:43.133Z,49.87
2023-04-18T13:37:44.698Z,48.97
2023-04-18T13:39:46.276Z,48.28
2023-04-18T13:41:47.871Z,47.45
2023-04-18T13:43:49.439Z,46.18
2023-04-18T13:45:53.985Z,45.43
2023-04-18T13:47:55.973Z,47.04
2023-04-18T13:49:57.892Z,46.73
2023-04-18T13:51:59.687Z,45.08
2023-04-18T13:54:01.656Z,45.91
2023-04-18T13:56:03.382Z,46.05
2023-04-18T13:58:05.160Z,49.11
2023-04-18T14:00:09.084Z,50.15
2023-04-18T14:02:16.477Z,47.14
2023-04-18T14:04:18.855Z,45.82
2023-04-18T14:06:20.650Z,41.71
2023-04-18T14:08:22.231Z,43.37
2023-04-18T14:10:23.907Z,43.65
2023-04-18T14:12:25.548Z,42.23
2023-04-18T14:14:27.133Z,43.34
2023-04-18T14:16:31.757Z,45.86
2023-04-18T14:18:34.159Z,44.08
2023-04-18T14:20:36.240Z,45.27
2023-04-18T14:22:37.815Z,47.95
2023-04-18T14:24:39.612Z,45.47
2023-04-18T14:26:41.759Z,47.37
2023-04-18T14:28:43.365Z,49.67
2023-04-18T14:30:44.929Z,46.98
2023-04-18T14:32:46.533Z,46.27
2023-04-18T14:34:48.115Z,47.12
2023-04-18T14:36:49.693Z,49.77
2023-04-18T14:38:51.212Z,49.92
2023-04-18T14:40:54.004Z,48.42
2023-04-18T14:42:55.987Z,52.18
2023-04-18T14:44:57.508Z,50.38
2023-04-18T14:46:59.048Z,49.67
2023-04-18T14:49:00.715Z,53.81
2023-04-18T14:51:04.844Z,48.72
2023-04-18T14:53:06.849Z,50.28
2023-04-18T14:55:09.798Z,47.88
2023-04-18T14:57:13.055Z,51.47
2023-04-18T14:59:16.762Z,49.02
2023-04-18T15:01:18.805Z,49.55
2023-04-18T15:03:20.660Z,54.74
2023-04-18T15:05:23.726Z,51.34
2023-04-18T15:07:25.320Z,55.25
2023-04-18T15:09:26.803Z,48.30
2023-04-18T15:11:28.321Z,52.20
2023-04-18T15:13:30.635Z,54.05
2023-04-18T15:15:35.482Z,54.76
2023-04-18T15:17:37.055Z,55.50
2023-04-18T15:19:38.791Z,56.07
2023-04-18T15:21:40.429Z,56.75
2023-04-18T15:23:41.941Z,55.63
2023-04-18T15:25:44.886Z,54.56
2023-04-18T15:27:46.390Z,54.67
2023-04-18T15:29:47.987Z,54.71
2023-04-18T15:31:49.754Z,55.34
2023-04-18T15:33:51.332Z,55.35
2023-04-18T15:35:55.251Z,56.68
2023-04-18T15:37:57.267Z,56.51
2023-04-18T15:39:58.883Z,56.43
2023-04-18T15:42:00.449Z,55.48
2023-04-18T15:44:03.120Z,55.48
2023-04-18T15:46:04.889Z,56.68
2023-04-18T15:48:06.678Z,57.29
2023-04-18T15:50:09.672Z,58.54
2023-04-18T15:52:11.338Z,58.29
2023-04-18T15:54:13.080Z,59.34
2023-04-18T15:56:14.852Z,58.51
2023-04-18T15:58:16.467Z,58.99
2023-04-18T16:00:19.566Z,59.08
2023-04-18T16:02:21.283Z,60.22
2023-04-18T16:04:23.984Z,60.24
2023-04-18T16:06:27.239Z,61.12
2023-04-18T16:08:29.875Z,61.34
2023-04-18T16:10:32.327Z,60.29
2023-04-18T16:12:34.590Z,61.68
2023-04-18T16:14:36.111Z,61.70
2023-04-18T16:16:37.833Z,62.14
2023-04-18T16:18:39.714Z,62.41
2023-04-18T16:20:41.161Z,61.88
2023-04-18T16:22:42.749Z,62.85
2023-04-18T16:24:44.241Z,62.47
2023-04-18T16:26:45.782Z,62.75
2023-04-18T16:28:48.404Z,63.08
2023-04-18T16:30:50.113Z,63.15
2023-04-18T16:32:52.146Z,63.44
2023-04-18T16:34:54.134Z,63.82
2023-04-18T16:36:55.768Z,63.80
2023-04-18T16:38:57.332Z,64.41
2023-04-18T16:41:00.916Z,64.55
2023-04-18T16:43:02.489Z,64.62
2023-04-18T16:45:04.423Z,64.57
2023-04-18T16:47:08.287Z,64.67
2023-04-18T16:49:10.202Z,65.35
2023-04-18T16:51:12.964Z,65.29
2023-04-18T16:53:14.577Z,65.05
2023-04-18T16:55:16.251Z,65.09
2023-04-18T16:57:17.897Z,65.13
2023-04-18T16:59:19.525Z,65.34
2023-04-18T17:01:21.322Z,65.30
2023-04-18T17:03:22.886Z,65.35
2023-04-18T17:05:25.813Z,66.09
2023-04-18T17:07:27.558Z,66.09
2023-04-18T17:09:30.178Z,66.69
2023-04-18T17:11:34.663Z,65.90
2023-04-18T17:13:36.464Z,66.48
2023-04-18T17:15:38.330Z,66.64
2023-04-18T17:17:40.115Z,66.81
2023-04-18T17:19:41.789Z,67.81
2023-04-18T17:21:43.977Z,67.31
2023-04-18T17:23:45.614Z,66.80
2023-04-18T17:25:47.491Z,67.89
2023-04-18T17:27:49.229Z,68.37
2023-04-18T17:29:50.891Z,68.96
2023-04-18T17:31:52.637Z,68.79
2023-04-18T17:33:54.583Z,69.65
2023-04-18T17:35:56.241Z,69.07
2023-04-18T17:37:58.009Z,69.57
2023-04-18T17:40:01.175Z,69.99
2023-04-18T17:42:02.999Z,69.86
2023-04-18T17:44:05.456Z,71.04
2023-04-18T17:46:06.983Z,70.54
2023-04-18T17:48:08.578Z,70.48
2023-04-18T17:50:10.752Z,70.79
2023-04-18T17:52:12.342Z,70.48
2023-04-18T17:54:14.044Z,70.72
2023-04-18T17:56:15.599Z,70.97
2023-04-18T17:58:17.232Z,75.60
2023-04-18T18:00:18.985Z,76.29
2023-04-18T18:02:20.563Z,72.03
2023-04-18T18:04:25.818Z,72.30
2023-04-18T18:06:28.411Z,72.49
2023-04-18T18:08:30.617Z,72.51
2023-04-18T18:10:32.284Z,73.13
2023-04-18T18:12:35.711Z,73.15
2023-04-18T18:14:37.740Z,73.36
2023-04-18T18:16:39.712Z,73.25
2023-04-18T18:18:41.870Z,73.05
2023-04-18T18:20:43.663Z,73.50
2023-04-18T18:22:45.599Z,73.50
2023-04-18T18:24:47.319Z,74.25
2023-04-18T18:26:51.000Z,74.54
2023-04-18T18:28:53.945Z,74.49
2023-04-18T18:30:55.619Z,74.18
2023-04-18T18:32:57.293Z,73.98
2023-04-18T18:34:58.966Z,75.18
2023-04-18T18:37:00.569Z,75.90
2023-04-18T18:39:02.290Z,75.98
2023-04-18T18:41:04.503Z,76.30
2023-04-18T18:43:06.254Z,76.41
2023-04-18T18:45:08.882Z,76.16
2023-04-18T18:47:10.503Z,76.45
2023-04-18T18:49:12.303Z,77.44
2023-04-18T18:51:15.986Z,76.13
2023-04-18T18:53:17.993Z,76.30
2023-04-18T18:55:19.539Z,76.57
2023-04-18T18:57:21.202Z,77.61
2023-04-18T18:59:22.720Z,77.02
2023-04-18T19:01:24.431Z,77.27
2023-04-18T19:03:26.293Z,77.01
2023-04-18T19:05:27.894Z,77.24
2023-04-18T19:07:30.186Z,76.72
2023-04-18T19:09:31.799Z,76.80
2023-04-18T19:11:33.393Z,76.04
2023-04-18T19:13:35.372Z,76.92
2023-04-18T19:15:36.866Z,77.07
2023-04-18T19:17:38.467Z,76.88
2023-04-18T19:19:40.107Z,76.93
2023-04-18T19:21:45.791Z,77.19
2023-04-18T19:23:47.414Z,77.39
2023-04-18T19:25:48.939Z,77.19
2023-04-18T19:27:51.178Z,78.30
2023-04-18T19:29:55.764Z,77.76
2023-04-18T19:31:57.387Z,77.56
2023-04-18T19:33:58.946Z,77.17
2023-04-18T19:36:00.549Z,77.22
2023-04-18T19:38:02.648Z,77.12
2023-04-18T19:40:04.628Z,77.79
2023-04-18T19:42:07.314Z,77.42
2023-04-18T19:44:08.900Z,77.43
2023-04-18T19:46:10.759Z,77.75
2023-04-18T19:48:12.454Z,77.67
2023-04-18T19:50:14.525Z,77.44
2023-04-18T19:52:16.540Z,77.69
2023-04-18T19:54:21.646Z,77.62
2023-04-18T19:56:23.582Z,77.61
2023-04-18T19:58:44.584Z,77.48
2023-04-18T20:00:46.315Z,78.14
2023-04-18T20:02:48.130Z,78.44
2023-04-18T20:04:49.969Z,78.36
2023-04-18T20:06:51.885Z,78.06
2023-04-18T20:08:54.235Z,77.76
2023-04-18T20:10:56.479Z,77.73
2023-04-18T20:12:58.006Z,77.61
2023-04-18T20:14:59.681Z,77.93
2023-04-18T20:17:01.205Z,78.66
2023-04-18T20:19:03.539Z,78.02
2023-04-18T20:21:09.672Z,76.98
2023-04-18T20:23:11.502Z,77.01
2023-04-18T20:25:13.058Z,77.33
2023-04-18T20:27:15.211Z,76.03
2023-04-18T20:29:16.977Z,74.40
2023-04-18T20:31:18.722Z,74.19
2023-04-18T20:33:20.485Z,75.30
2023-04-18T20:35:22.336Z,77.45
2023-04-18T20:37:24.420Z,77.59
2023-04-18T20:39:26.262Z,77.44
2023-04-18T20:41:31.065Z,77.67
2023-04-18T20:43:37.084Z,77.30
2023-04-18T20:45:42.555Z,77.32
2023-04-18T20:47:44.116Z,77.38
2023-04-18T20:49:45.941Z,77.48
2023-04-18T20:51:47.704Z,77.76
2023-04-18T20:53:49.390Z,78.41
2023-04-18T20:55:50.986Z,77.98
2023-04-18T20:57:53.611Z,77.69
2023-04-18T20:59:58.446Z,78.05
2023-04-18T21:02:00.758Z,77.97
2023-04-18T21:04:02.759Z,78.44
2023-04-18T21:06:04.580Z,78.47
2023-04-18T21:08:06.293Z,78.57
2023-04-18T21:10:08.389Z,78.69
2023-04-18T21:12:10.049Z,78.84
2023-04-18T21:14:11.760Z,79.25
2023-04-18T21:16:13.342Z,80.00
2023-04-18T21:18:15.003Z,79.44
2023-04-18T21:20:17.068Z,78.61
2023-04-18T21:22:18.682Z,78.78
2023-04-18T21:24:20.353Z,78.82
2023-04-18T21:26:22.118Z,78.49
2023-04-18T21:28:23.711Z,78.28
2023-04-18T21:30:25.300Z,78.60
2023-04-18T21:32:26.885Z,78.45
2023-04-18T21:34:28.668Z,78.35
2023-04-18T21:36:31.397Z,78.54
2023-04-18T21:38:32.934Z,77.83
2023-04-18T21:40:34.439Z,78.24
2023-04-18T21:42:39.577Z,78.28
2023-04-18T21:44:42.218Z,78.44
2023-04-18T21:46:44.030Z,78.58
2023-04-18T21:48:47.006Z,78.75
2023-04-18T21:50:54.883Z,78.92
2023-04-18T21:52:56.485Z,78.27
2023-04-18T21:54:59.157Z,78.97
2023-04-18T21:57:00.671Z,78.46
2023-04-18T21:59:02.134Z,78.51
2023-04-18T22:01:03.713Z,78.32
2023-04-18T22:03:05.552Z,78.28
2023-04-18T22:05:08.046Z,79.59
2023-04-18T22:07:09.956Z,79.57
2023-04-18T22:09:11.993Z,79.01
2023-04-18T22:11:13.686Z,79.28
2023-04-18T22:13:16.591Z,79.36
2023-04-18T22:15:18.174Z,78.87
2023-04-18T22:17:21.945Z,80.04
2023-04-18T22:19:24.708Z,79.52
2023-04-18T22:21:26.389Z,80.33
2023-04-18T22:23:28.166Z,80.36
2023-04-18T22:25:30.323Z,80.30
2023-04-18T22:27:31.852Z,80.45
2023-04-18T22:29:33.381Z,80.71
2023-04-18T22:31:34.960Z,80.19
2023-04-18T22:33:36.494Z,80.68
2023-04-18T22:35:38.066Z,81.32
2023-04-18T22:37:39.740Z,80.92
2023-04-18T22:39:41.252Z,81.27
2023-04-18T22:41:43.222Z,80.73
2023-04-18T22:43:47.733Z,80.96
2023-04-18T22:45:50.971Z,81.18
2023-04-18T22:47:53.180Z,81.05
2023-04-18T22:49:54.805Z,82.02
2023-04-18T22:51:57.024Z,82.15
2023-04-18T22:53:58.554Z,81.97
2023-04-18T22:56:00.255Z,81.30
2023-04-18T22:58:03.070Z,81.48
2023-04-18T23:00:06.476Z,81.10
2023-04-18T23:02:08.130Z,81.28
2023-04-18T23:04:09.949Z,81.20
2023-04-18T23:06:11.699Z,81.66
2023-04-18T23:08:13.195Z,81.41
2023-04-18T23:10:14.726Z,81.51
2023-04-18T23:12:16.572Z,81.50
2023-04-18T23:14:18.256Z,81.26
2023-04-18T23:16:19.768Z,81.46
2023-04-18T23:18:21.290Z,82.03
2023-04-18T23:20:23.966Z,81.64
2023-04-18T23:22:25.528Z,80.54
2023-04-18T23:24:27.518Z,81.01
2023-04-18T23:26:29.057Z,81.42
2023-04-18T23:28:30.639Z,82.11
2023-04-18T23:30:35.287Z,82.08
2023-04-18T23:32:36.924Z,81.89
2023-04-18T23:34:38.489Z,81.83
2023-04-18T23:36:40.518Z,81.75
2023-04-18T23:38:42.757Z,82.26
2023-04-18T23:40:44.294Z,82.23
2023-04-18T23:42:46.404Z,82.66
2023-04-18T23:44:47.984Z,82.52
2023-04-18T23:46:53.544Z,82.01
2023-04-18T23:48:55.193Z,82.57
2023-04-18T23:50:57.389Z,82.99
2023-04-18T23:53:01.275Z,82.46
2023-04-18T23:55:02.799Z,81.46
2023-04-18T23:57:04.921Z,81.06
2023-04-18T23:59:06.523Z,81.37
